sensor_id;sensor_type;location;lat;lon;timestamp;P1;durP1;ratioP1;P2;durP2;ratioP2
66619;SDS011;53484;51.356;6.732;2022-07-23T00:01:42;9.10;;;5.20;;
66619;SDS011;53484;51.356;6.732;2022-07-23T00:04:09;11.65;;;5.03;;
66619;SDS011;53484;51.356;6.732;2022-07-23T00:06:35;10.82;;;5.38;;
66619;SDS011;53484;51.356;6.732;2022-07-23T00:09:03;11.18;;;4.70;;
66619;SDS011;53484;51.356;6.732;2022-07-23T00:11:29;12.55;;;5.70;;
66619;SDS011;53484;51.356;6.732;2022-07-23T00:13:55;13.25;;;6.10;;
66619;SDS011;53484;51.356;6.732;2022-07-23T00:16:23;12.93;;;5.95;;
66619;SDS011;53484;51.356;6.732;2022-07-23T00:18:49;11.93;;;6.05;;
66619;SDS011;53484;51.356;6.732;2022-07-23T00:21:15;9.18;;;5.50;;
66619;SDS011;53484;51.356;6.732;2022-07-23T00:23:41;11.27;;;5.82;;
66619;SDS011;53484;51.356;6.732;2022-07-23T00:26:09;12.18;;;5.97;;
66619;SDS011;53484;51.356;6.732;2022-07-23T00:28:35;12.32;;;6.68;;
66619;SDS011;53484;51.356;6.732;2022-07-23T00:31:01;13.20;;;5.95;;
66619;SDS011;53484;51.356;6.732;2022-07-23T00:33:28;12.45;;;6.47;;
66619;SDS011;53484;51.356;6.732;2022-07-23T00:35:54;11.43;;;6.25;;
66619;SDS011;53484;51.356;6.732;2022-07-23T00:38:20;12.82;;;7.00;;
66619;SDS011;53484;51.356;6.732;2022-07-23T00:40:47;14.20;;;6.40;;
66619;SDS011;53484;51.356;6.732;2022-07-23T00:43:14;13.30;;;7.10;;
66619;SDS011;53484;51.356;6.732;2022-07-23T00:45:40;13.65;;;6.50;;
66619;SDS011;53484;51.356;6.732;2022-07-23T00:48:07;12.77;;;6.50;;
66619;SDS011;53484;51.356;6.732;2022-07-23T00:50:33;10.43;;;6.13;;
66619;SDS011;53484;51.356;6.732;2022-07-23T00:52:59;12.40;;;6.65;;
66619;SDS011;53484;51.356;6.732;2022-07-23T00:55:26;11.90;;;7.13;;
66619;SDS011;53484;51.356;6.732;2022-07-23T00:57:52;12.25;;;5.90;;
66619;SDS011;53484;51.356;6.732;2022-07-23T01:00:20;14.77;;;6.95;;
66619;SDS011;53484;51.356;6.732;2022-07-23T01:02:47;11.18;;;6.68;;
66619;SDS011;53484;51.356;6.732;2022-07-23T01:05:13;13.02;;;6.40;;
66619;SDS011;53484;51.356;6.732;2022-07-23T01:07:39;13.27;;;6.90;;
66619;SDS011;53484;51.356;6.732;2022-07-23T01:10:06;13.10;;;6.65;;
66619;SDS011;53484;51.356;6.732;2022-07-23T01:12:53;11.68;;;6.70;;
66619;SDS011;53484;51.356;6.732;2022-07-23T01:15:21;15.60;;;7.80;;
66619;SDS011;53484;51.356;6.732;2022-07-23T01:17:47;16.23;;;8.25;;
66619;SDS011;53484;51.356;6.732;2022-07-23T01:20:14;12.68;;;6.65;;
66619;SDS011;53484;51.356;6.732;2022-07-23T01:22:41;13.75;;;7.13;;
66619;SDS011;53484;51.356;6.732;2022-07-23T01:25:08;15.18;;;7.53;;
66619;SDS011;53484;51.356;6.732;2022-07-23T01:27:34;11.90;;;6.90;;
66619;SDS011;53484;51.356;6.732;2022-07-23T01:30:01;13.52;;;7.03;;
66619;SDS011;53484;51.356;6.732;2022-07-23T01:32:27;13.00;;;6.50;;
66619;SDS011;53484;51.356;6.732;2022-07-23T01:34:53;13.25;;;7.20;;
66619;SDS011;53484;51.356;6.732;2022-07-23T01:37:20;12.45;;;7.30;;
66619;SDS011;53484;51.356;6.732;2022-07-23T01:39:47;11.07;;;6.53;;
66619;SDS011;53484;51.356;6.732;2022-07-23T01:42:14;15.75;;;7.05;;
66619;SDS011;53484;51.356;6.732;2022-07-23T01:44:40;14.20;;;7.47;;
66619;SDS011;53484;51.356;6.732;2022-07-23T01:47:06;13.65;;;7.25;;
66619;SDS011;53484;51.356;6.732;2022-07-23T01:49:32;13.73;;;7.43;;
66619;SDS011;53484;51.356;6.732;2022-07-23T01:51:59;11.27;;;6.97;;
66619;SDS011;53484;51.356;6.732;2022-07-23T01:54:32;12.35;;;6.00;;
66619;SDS011;53484;51.356;6.732;2022-07-23T01:57:00;15.23;;;7.18;;
66619;SDS011;53484;51.356;6.732;2022-07-23T01:59:26;13.50;;;6.85;;
66619;SDS011;53484;51.356;6.732;2022-07-23T02:01:53;16.50;;;7.78;;
66619;SDS011;53484;51.356;6.732;2022-07-23T02:04:19;13.38;;;8.05;;
66619;SDS011;53484;51.356;6.732;2022-07-23T02:06:46;13.60;;;7.50;;
66619;SDS011;53484;51.356;6.732;2022-07-23T02:09:12;17.20;;;7.68;;
66619;SDS011;53484;51.356;6.732;2022-07-23T02:11:39;13.93;;;7.43;;
66619;SDS011;53484;51.356;6.732;2022-07-23T02:14:07;12.32;;;7.45;;
66619;SDS011;53484;51.356;6.732;2022-07-23T02:16:33;16.75;;;7.50;;
66619;SDS011;53484;51.356;6.732;2022-07-23T02:18:59;13.90;;;7.40;;
66619;SDS011;53484;51.356;6.732;2022-07-23T02:21:25;16.42;;;8.68;;
66619;SDS011;53484;51.356;6.732;2022-07-23T02:23:52;13.00;;;6.97;;
66619;SDS011;53484;51.356;6.732;2022-07-23T02:26:18;13.35;;;8.15;;
66619;SDS011;53484;51.356;6.732;2022-07-23T02:28:44;14.13;;;8.00;;
66619;SDS011;53484;51.356;6.732;2022-07-23T02:31:12;15.93;;;7.75;;
66619;SDS011;53484;51.356;6.732;2022-07-23T02:33:38;15.43;;;7.53;;
66619;SDS011;53484;51.356;6.732;2022-07-23T02:36:05;14.82;;;7.25;;
66619;SDS011;53484;51.356;6.732;2022-07-23T02:38:31;16.65;;;7.90;;
66619;SDS011;53484;51.356;6.732;2022-07-23T02:40:57;15.75;;;8.23;;
66619;SDS011;53484;51.356;6.732;2022-07-23T02:43:23;14.40;;;7.10;;
66619;SDS011;53484;51.356;6.732;2022-07-23T02:45:50;15.10;;;8.35;;
66619;SDS011;53484;51.356;6.732;2022-07-23T02:48:17;13.32;;;7.75;;
66619;SDS011;53484;51.356;6.732;2022-07-23T02:50:44;13.70;;;7.95;;
66619;SDS011;53484;51.356;6.732;2022-07-23T02:53:10;16.55;;;7.78;;
66619;SDS011;53484;51.356;6.732;2022-07-23T02:55:36;15.88;;;7.38;;
66619;SDS011;53484;51.356;6.732;2022-07-23T02:58:02;13.82;;;7.32;;
66619;SDS011;53484;51.356;6.732;2022-07-23T03:00:29;15.07;;;7.97;;
66619;SDS011;53484;51.356;6.732;2022-07-23T03:02:55;13.40;;;7.20;;
66619;SDS011;53484;51.356;6.732;2022-07-23T03:05:23;15.15;;;7.47;;
66619;SDS011;53484;51.356;6.732;2022-07-23T03:07:49;15.15;;;7.38;;
66619;SDS011;53484;51.356;6.732;2022-07-23T03:10:15;13.45;;;7.32;;
66619;SDS011;53484;51.356;6.732;2022-07-23T03:12:41;15.80;;;6.32;;
66619;SDS011;53484;51.356;6.732;2022-07-23T03:15:08;15.88;;;8.02;;
66619;SDS011;53484;51.356;6.732;2022-07-23T03:17:35;16.50;;;9.07;;
66619;SDS011;53484;51.356;6.732;2022-07-23T03:20:01;14.77;;;8.27;;
66619;SDS011;53484;51.356;6.732;2022-07-23T03:22:29;13.20;;;7.50;;
66619;SDS011;53484;51.356;6.732;2022-07-23T03:24:55;13.23;;;7.63;;
66619;SDS011;53484;51.356;6.732;2022-07-23T03:27:21;14.75;;;8.10;;
66619;SDS011;53484;51.356;6.732;2022-07-23T03:29:48;14.25;;;7.50;;
66619;SDS011;53484;51.356;6.732;2022-07-23T03:32:14;13.48;;;8.25;;
66619;SDS011;53484;51.356;6.732;2022-07-23T03:34:41;12.18;;;7.05;;
66619;SDS011;53484;51.356;6.732;2022-07-23T03:37:07;13.13;;;7.28;;
66619;SDS011;53484;51.356;6.732;2022-07-23T03:39:34;15.10;;;7.68;;
66619;SDS011;53484;51.356;6.732;2022-07-23T03:42:01;14.80;;;7.60;;
66619;SDS011;53484;51.356;6.732;2022-07-23T03:44:27;12.90;;;6.88;;
66619;SDS011;53484;51.356;6.732;2022-07-23T03:46:53;13.63;;;8.05;;
66619;SDS011;53484;51.356;6.732;2022-07-23T03:49:20;14.52;;;8.07;;
66619;SDS011;53484;51.356;6.732;2022-07-23T03:51:46;16.80;;;7.85;;
66619;SDS011;53484;51.356;6.732;2022-07-23T03:54:12;14.60;;;8.23;;
66619;SDS011;53484;51.356;6.732;2022-07-23T03:56:40;17.70;;;7.82;;
66619;SDS011;53484;51.356;6.732;2022-07-23T03:59:07;12.48;;;7.60;;
66619;SDS011;53484;51.356;6.732;2022-07-23T04:01:34;14.82;;;8.18;;
66619;SDS011;53484;51.356;6.732;2022-07-23T04:04:00;17.05;;;7.30;;
66619;SDS011;53484;51.356;6.732;2022-07-23T04:06:26;12.90;;;7.43;;
66619;SDS011;53484;51.356;6.732;2022-07-23T04:08:53;16.00;;;8.23;;
66619;SDS011;53484;51.356;6.732;2022-07-23T04:11:19;13.82;;;7.70;;
66619;SDS011;53484;51.356;6.732;2022-07-23T04:13:47;15.82;;;7.90;;
66619;SDS011;53484;51.356;6.732;2022-07-23T04:16:13;12.45;;;7.57;;
66619;SDS011;53484;51.356;6.732;2022-07-23T04:18:39;18.98;;;6.93;;
66619;SDS011;53484;51.356;6.732;2022-07-23T04:21:05;14.60;;;7.47;;
66619;SDS011;53484;51.356;6.732;2022-07-23T04:23:32;15.85;;;7.30;;
66619;SDS011;53484;51.356;6.732;2022-07-23T04:25:58;10.57;;;7.10;;
66619;SDS011;53484;51.356;6.732;2022-07-23T04:28:24;14.25;;;7.47;;
66619;SDS011;53484;51.356;6.732;2022-07-23T04:30:52;15.88;;;7.70;;
66619;SDS011;53484;51.356;6.732;2022-07-23T04:33:18;16.35;;;7.75;;
66619;SDS011;53484;51.356;6.732;2022-07-23T04:35:44;15.30;;;8.48;;
66619;SDS011;53484;51.356;6.732;2022-07-23T04:38:11;15.38;;;8.40;;
66619;SDS011;53484;51.356;6.732;2022-07-23T04:40:37;21.20;;;9.23;;
66619;SDS011;53484;51.356;6.732;2022-07-23T04:43:03;13.13;;;7.72;;
66619;SDS011;53484;51.356;6.732;2022-07-23T04:45:30;14.38;;;7.53;;
66619;SDS011;53484;51.356;6.732;2022-07-23T04:47:57;22.38;;;8.88;;
66619;SDS011;53484;51.356;6.732;2022-07-23T04:50:24;12.70;;;7.38;;
66619;SDS011;53484;51.356;6.732;2022-07-23T04:52:50;16.73;;;8.30;;
66619;SDS011;53484;51.356;6.732;2022-07-23T04:55:16;15.40;;;8.13;;
66619;SDS011;53484;51.356;6.732;2022-07-23T04:57:43;14.73;;;8.57;;
66619;SDS011;53484;51.356;6.732;2022-07-23T05:00:09;14.32;;;8.27;;
66619;SDS011;53484;51.356;6.732;2022-07-23T05:02:36;13.45;;;8.13;;
66619;SDS011;53484;51.356;6.732;2022-07-23T05:05:04;16.23;;;8.90;;
66619;SDS011;53484;51.356;6.732;2022-07-23T05:07:30;20.30;;;9.73;;
66619;SDS011;53484;51.356;6.732;2022-07-23T05:09:57;16.55;;;8.25;;
66619;SDS011;53484;51.356;6.732;2022-07-23T05:12:23;14.52;;;8.30;;
66619;SDS011;53484;51.356;6.732;2022-07-23T05:14:49;15.82;;;8.60;;
66619;SDS011;53484;51.356;6.732;2022-07-23T05:17:16;16.25;;;8.18;;
66619;SDS011;53484;51.356;6.732;2022-07-23T05:19:42;13.82;;;7.55;;
66619;SDS011;53484;51.356;6.732;2022-07-23T05:22:10;15.90;;;8.13;;
66619;SDS011;53484;51.356;6.732;2022-07-23T05:24:36;14.20;;;8.85;;
66619;SDS011;53484;51.356;6.732;2022-07-23T05:27:03;15.48;;;8.68;;
66619;SDS011;53484;51.356;6.732;2022-07-23T05:29:29;17.38;;;8.27;;
66619;SDS011;53484;51.356;6.732;2022-07-23T05:31:55;18.15;;;8.85;;
66619;SDS011;53484;51.356;6.732;2022-07-23T05:34:22;16.13;;;8.32;;
66619;SDS011;53484;51.356;6.732;2022-07-23T05:36:48;17.83;;;8.82;;
66619;SDS011;53484;51.356;6.732;2022-07-23T05:39:16;15.40;;;8.55;;
66619;SDS011;53484;51.356;6.732;2022-07-23T05:41:42;15.20;;;9.57;;
66619;SDS011;53484;51.356;6.732;2022-07-23T05:44:08;15.73;;;8.57;;
66619;SDS011;53484;51.356;6.732;2022-07-23T05:46:35;16.02;;;9.90;;
66619;SDS011;53484;51.356;6.732;2022-07-23T05:49:01;16.42;;;8.45;;
66619;SDS011;53484;51.356;6.732;2022-07-23T05:51:27;34.85;;;9.98;;
66619;SDS011;53484;51.356;6.732;2022-07-23T05:53:54;17.15;;;9.30;;
66619;SDS011;53484;51.356;6.732;2022-07-23T05:56:21;16.30;;;9.27;;
66619;SDS011;53484;51.356;6.732;2022-07-23T05:58:48;13.35;;;8.63;;
66619;SDS011;53484;51.356;6.732;2022-07-23T06:01:14;18.10;;;10.75;;
66619;SDS011;53484;51.356;6.732;2022-07-23T06:03:40;17.70;;;10.60;;
66619;SDS011;53484;51.356;6.732;2022-07-23T06:06:07;21.73;;;11.65;;
66619;SDS011;53484;51.356;6.732;2022-07-23T06:08:33;17.13;;;9.68;;
66619;SDS011;53484;51.356;6.732;2022-07-23T06:10:59;16.20;;;10.82;;
66619;SDS011;53484;51.356;6.732;2022-07-23T06:13:27;17.35;;;10.00;;
66619;SDS011;53484;51.356;6.732;2022-07-23T06:15:53;18.73;;;10.07;;
66619;SDS011;53484;51.356;6.732;2022-07-23T06:18:20;15.57;;;10.35;;
66619;SDS011;53484;51.356;6.732;2022-07-23T06:20:46;19.10;;;10.18;;
66619;SDS011;53484;51.356;6.732;2022-07-23T06:23:12;18.08;;;10.32;;
66619;SDS011;53484;51.356;6.732;2022-07-23T06:25:38;22.40;;;11.40;;
66619;SDS011;53484;51.356;6.732;2022-07-23T06:28:05;21.50;;;10.98;;
66619;SDS011;53484;51.356;6.732;2022-07-23T06:30:33;19.70;;;11.55;;
66619;SDS011;53484;51.356;6.732;2022-07-23T06:32:59;18.75;;;10.40;;
66619;SDS011;53484;51.356;6.732;2022-07-23T06:35:26;19.00;;;11.38;;
66619;SDS011;53484;51.356;6.732;2022-07-23T06:37:52;18.52;;;10.52;;
66619;SDS011;53484;51.356;6.732;2022-07-23T06:40:18;20.15;;;10.60;;
66619;SDS011;53484;51.356;6.732;2022-07-23T06:42:45;16.77;;;10.68;;
66619;SDS011;53484;51.356;6.732;2022-07-23T06:45:11;20.95;;;11.90;;
66619;SDS011;53484;51.356;6.732;2022-07-23T06:47:39;22.15;;;13.18;;
66619;SDS011;53484;51.356;6.732;2022-07-23T06:50:07;21.35;;;12.70;;
66619;SDS011;53484;51.356;6.732;2022-07-23T06:52:33;25.27;;;12.75;;
66619;SDS011;53484;51.356;6.732;2022-07-23T06:54:59;22.25;;;12.40;;
66619;SDS011;53484;51.356;6.732;2022-07-23T06:57:26;19.25;;;11.63;;
66619;SDS011;53484;51.356;6.732;2022-07-23T06:59:52;21.00;;;10.63;;
66619;SDS011;53484;51.356;6.732;2022-07-23T07:02:19;22.73;;;12.05;;
66619;SDS011;53484;51.356;6.732;2022-07-23T07:04:47;22.17;;;12.50;;
66619;SDS011;53484;51.356;6.732;2022-07-23T07:07:13;18.63;;;10.80;;
66619;SDS011;53484;51.356;6.732;2022-07-23T07:09:39;24.00;;;10.55;;
66619;SDS011;53484;51.356;6.732;2022-07-23T07:12:06;23.88;;;11.10;;
66619;SDS011;53484;51.356;6.732;2022-07-23T07:14:32;24.83;;;11.20;;
66619;SDS011;53484;51.356;6.732;2022-07-23T07:16:58;27.75;;;12.80;;
66619;SDS011;53484;51.356;6.732;2022-07-23T07:19:25;28.20;;;11.55;;
66619;SDS011;53484;51.356;6.732;2022-07-23T07:21:52;21.73;;;10.63;;
66619;SDS011;53484;51.356;6.732;2022-07-23T07:24:19;22.27;;;10.48;;
66619;SDS011;53484;51.356;6.732;2022-07-23T07:26:45;18.98;;;9.50;;
66619;SDS011;53484;51.356;6.732;2022-07-23T07:29:11;17.48;;;9.20;;
66619;SDS011;53484;51.356;6.732;2022-07-23T07:31:37;16.48;;;8.75;;
66619;SDS011;53484;51.356;6.732;2022-07-23T07:34:04;16.73;;;8.52;;
66619;SDS011;53484;51.356;6.732;2022-07-23T07:36:30;14.77;;;7.75;;
66619;SDS011;53484;51.356;6.732;2022-07-23T07:38:59;16.92;;;8.60;;
66619;SDS011;53484;51.356;6.732;2022-07-23T07:41:25;15.95;;;7.93;;
66619;SDS011;53484;51.356;6.732;2022-07-23T07:43:51;15.88;;;7.82;;
66619;SDS011;53484;51.356;6.732;2022-07-23T07:46:18;17.25;;;7.97;;
66619;SDS011;53484;51.356;6.732;2022-07-23T07:48:44;19.23;;;8.63;;
66619;SDS011;53484;51.356;6.732;2022-07-23T07:51:10;14.00;;;8.15;;
66619;SDS011;53484;51.356;6.732;2022-07-23T07:53:36;13.98;;;7.10;;
66619;SDS011;53484;51.356;6.732;2022-07-23T07:56:04;13.85;;;6.70;;
66619;SDS011;53484;51.356;6.732;2022-07-23T07:58:31;10.98;;;6.25;;
66619;SDS011;53484;51.356;6.732;2022-07-23T08:00:57;13.05;;;6.00;;
66619;SDS011;53484;51.356;6.732;2022-07-23T08:03:23;15.00;;;6.53;;
66619;SDS011;53484;51.356;6.732;2022-07-23T08:05:50;16.23;;;9.73;;
66619;SDS011;53484;51.356;6.732;2022-07-23T08:08:16;12.25;;;6.60;;
66619;SDS011;53484;51.356;6.732;2022-07-23T08:10:42;10.93;;;4.88;;
66619;SDS011;53484;51.356;6.732;2022-07-23T08:13:11;12.70;;;6.57;;
66619;SDS011;53484;51.356;6.732;2022-07-23T08:15:38;15.40;;;7.00;;
66619;SDS011;53484;51.356;6.732;2022-07-23T08:18:04;9.95;;;4.80;;
66619;SDS011;53484;51.356;6.732;2022-07-23T08:20:30;9.40;;;4.65;;
66619;SDS011;53484;51.356;6.732;2022-07-23T08:22:57;11.85;;;5.00;;
66619;SDS011;53484;51.356;6.732;2022-07-23T08:25:25;11.88;;;4.07;;
66619;SDS011;53484;51.356;6.732;2022-07-23T08:27:51;7.65;;;3.90;;
66619;SDS011;53484;51.356;6.732;2022-07-23T08:30:19;8.93;;;3.90;;
66619;SDS011;53484;51.356;6.732;2022-07-23T08:32:53;8.90;;;3.75;;
66619;SDS011;53484;51.356;6.732;2022-07-23T08:35:23;8.43;;;4.00;;
66619;SDS011;53484;51.356;6.732;2022-07-23T08:37:49;10.43;;;5.53;;
66619;SDS011;53484;51.356;6.732;2022-07-23T08:40:15;8.90;;;4.45;;
66619;SDS011;53484;51.356;6.732;2022-07-23T08:42:42;9.38;;;3.63;;
66619;SDS011;53484;51.356;6.732;2022-07-23T08:45:08;9.65;;;3.85;;
66619;SDS011;53484;51.356;6.732;2022-07-23T08:47:37;9.80;;;3.53;;
66619;SDS011;53484;51.356;6.732;2022-07-23T08:50:04;7.75;;;3.63;;
66619;SDS011;53484;51.356;6.732;2022-07-23T08:52:30;8.25;;;3.60;;
66619;SDS011;53484;51.356;6.732;2022-07-23T08:54:57;8.10;;;3.20;;
66619;SDS011;53484;51.356;6.732;2022-07-23T08:57:23;6.88;;;3.20;;
66619;SDS011;53484;51.356;6.732;2022-07-23T08:59:49;9.30;;;3.28;;
66619;SDS011;53484;51.356;6.732;2022-07-23T09:02:16;9.05;;;3.72;;
66619;SDS011;53484;51.356;6.732;2022-07-23T09:04:43;7.93;;;3.75;;
66619;SDS011;53484;51.356;6.732;2022-07-23T09:07:10;8.68;;;3.65;;
66619;SDS011;53484;51.356;6.732;2022-07-23T09:09:36;10.60;;;3.25;;
66619;SDS011;53484;51.356;6.732;2022-07-23T09:12:03;7.75;;;4.03;;
66619;SDS011;53484;51.356;6.732;2022-07-23T09:14:36;10.25;;;3.80;;
66619;SDS011;53484;51.356;6.732;2022-07-23T09:17:08;7.50;;;3.78;;
66619;SDS011;53484;51.356;6.732;2022-07-23T09:19:34;10.85;;;5.60;;
66619;SDS011;53484;51.356;6.732;2022-07-23T09:25:08;9.45;;;3.97;;
66619;SDS011;53484;51.356;6.732;2022-07-23T09:27:45;8.80;;;4.25;;
66619;SDS011;53484;51.356;6.732;2022-07-23T09:30:12;9.38;;;3.72;;
66619;SDS011;53484;51.356;6.732;2022-07-23T09:32:39;11.20;;;4.78;;
66619;SDS011;53484;51.356;6.732;2022-07-23T09:35:05;8.13;;;5.00;;
66619;SDS011;53484;51.356;6.732;2022-07-23T09:37:32;9.52;;;4.20;;
66619;SDS011;53484;51.356;6.732;2022-07-23T09:40:03;9.32;;;5.00;;
66619;SDS011;53484;51.356;6.732;2022-07-23T09:42:31;7.60;;;4.20;;
66619;SDS011;53484;51.356;6.732;2022-07-23T09:44:57;10.15;;;4.60;;
66619;SDS011;53484;51.356;6.732;2022-07-23T09:47:25;9.18;;;4.55;;
66619;SDS011;53484;51.356;6.732;2022-07-23T09:50:01;9.63;;;4.20;;
66619;SDS011;53484;51.356;6.732;2022-07-23T09:52:34;8.18;;;3.90;;
66619;SDS011;53484;51.356;6.732;2022-07-23T09:55:02;8.90;;;3.90;;
66619;SDS011;53484;51.356;6.732;2022-07-23T09:57:28;7.32;;;3.42;;
66619;SDS011;53484;51.356;6.732;2022-07-23T09:59:57;9.25;;;4.40;;
66619;SDS011;53484;51.356;6.732;2022-07-23T10:02:24;9.13;;;4.30;;
66619;SDS011;53484;51.356;6.732;2022-07-23T10:04:51;14.30;;;5.93;;
66619;SDS011;53484;51.356;6.732;2022-07-23T10:07:19;10.90;;;4.90;;
66619;SDS011;53484;51.356;6.732;2022-07-23T10:09:48;7.43;;;3.72;;
66619;SDS011;53484;51.356;6.732;2022-07-23T10:12:17;11.13;;;3.60;;
66619;SDS011;53484;51.356;6.732;2022-07-23T10:15:00;7.45;;;3.70;;
66619;SDS011;53484;51.356;6.732;2022-07-23T10:17:27;11.02;;;5.30;;
66619;SDS011;53484;51.356;6.732;2022-07-23T10:19:53;11.57;;;5.10;;
66619;SDS011;53484;51.356;6.732;2022-07-23T10:22:20;12.07;;;5.38;;
66619;SDS011;53484;51.356;6.732;2022-07-23T10:24:51;8.82;;;4.50;;
66619;SDS011;53484;51.356;6.732;2022-07-23T10:27:26;10.77;;;5.50;;
66619;SDS011;53484;51.356;6.732;2022-07-23T10:29:58;12.85;;;5.28;;
66619;SDS011;53484;51.356;6.732;2022-07-23T10:32:31;11.50;;;4.30;;
66619;SDS011;53484;51.356;6.732;2022-07-23T10:35:05;6.50;;;3.30;;
66619;SDS011;53484;51.356;6.732;2022-07-23T10:37:34;7.75;;;3.33;;
66619;SDS011;53484;51.356;6.732;2022-07-23T10:40:09;7.03;;;3.40;;
66619;SDS011;53484;51.356;6.732;2022-07-23T10:42:36;10.48;;;4.80;;
66619;SDS011;53484;51.356;6.732;2022-07-23T10:45:05;13.00;;;7.13;;
66619;SDS011;53484;51.356;6.732;2022-07-23T10:47:49;9.95;;;4.90;;
66619;SDS011;53484;51.356;6.732;2022-07-23T10:50:17;9.73;;;4.88;;
66619;SDS011;53484;51.356;6.732;2022-07-23T10:55:45;7.75;;;4.03;;
66619;SDS011;53484;51.356;6.732;2022-07-23T10:58:12;9.43;;;4.70;;
66619;SDS011;53484;51.356;6.732;2022-07-23T11:00:42;6.40;;;2.90;;
66619;SDS011;53484;51.356;6.732;2022-07-23T11:05:51;13.93;;;6.10;;
66619;SDS011;53484;51.356;6.732;2022-07-23T11:08:18;16.75;;;6.63;;
66619;SDS011;53484;51.356;6.732;2022-07-23T11:10:46;10.00;;;4.53;;
66619;SDS011;53484;51.356;6.732;2022-07-23T11:13:35;7.25;;;3.38;;
66619;SDS011;53484;51.356;6.732;2022-07-23T11:16:07;7.30;;;3.28;;
66619;SDS011;53484;51.356;6.732;2022-07-23T11:18:54;6.45;;;3.35;;
66619;SDS011;53484;51.356;6.732;2022-07-23T11:24:08;5.40;;;2.90;;
66619;SDS011;53484;51.356;6.732;2022-07-23T11:26:44;6.28;;;2.60;;
66619;SDS011;53484;51.356;6.732;2022-07-23T11:32:05;6.20;;;2.50;;
66619;SDS011;53484;51.356;6.732;2022-07-23T11:34:32;6.50;;;2.65;;
66619;SDS011;53484;51.356;6.732;2022-07-23T11:37:00;6.87;;;2.77;;
66619;SDS011;53484;51.356;6.732;2022-07-23T11:39:28;9.20;;;3.28;;
66619;SDS011;53484;51.356;6.732;2022-07-23T11:41:55;5.15;;;2.97;;
66619;SDS011;53484;51.356;6.732;2022-07-23T11:44:25;10.07;;;3.25;;
66619;SDS011;53484;51.356;6.732;2022-07-23T11:46:55;11.63;;;3.50;;
66619;SDS011;53484;51.356;6.732;2022-07-23T11:49:22;9.97;;;4.47;;
66619;SDS011;53484;51.356;6.732;2022-07-23T11:52:01;5.13;;;3.03;;
66619;SDS011;53484;51.356;6.732;2022-07-23T11:54:29;6.38;;;2.70;;
66619;SDS011;53484;51.356;6.732;2022-07-23T11:56:55;5.90;;;2.90;;
66619;SDS011;53484;51.356;6.732;2022-07-23T11:59:22;5.88;;;2.30;;
66619;SDS011;53484;51.356;6.732;2022-07-23T12:01:56;6.50;;;2.47;;
66619;SDS011;53484;51.356;6.732;2022-07-23T12:04:23;5.50;;;2.70;;
66619;SDS011;53484;51.356;6.732;2022-07-23T12:06:49;6.55;;;2.38;;
66619;SDS011;53484;51.356;6.732;2022-07-23T12:09:15;5.75;;;2.67;;
66619;SDS011;53484;51.356;6.732;2022-07-23T12:11:57;5.72;;;2.47;;
66619;SDS011;53484;51.356;6.732;2022-07-23T12:14:24;5.43;;;2.30;;
66619;SDS011;53484;51.356;6.732;2022-07-23T12:19:31;4.10;;;2.05;;
66619;SDS011;53484;51.356;6.732;2022-07-23T12:21:57;7.13;;;2.85;;
66619;SDS011;53484;51.356;6.732;2022-07-23T12:24:24;4.65;;;2.58;;
66619;SDS011;53484;51.356;6.732;2022-07-23T12:29:35;8.80;;;2.90;;
66619;SDS011;53484;51.356;6.732;2022-07-23T12:32:01;4.00;;;2.30;;
66619;SDS011;53484;51.356;6.732;2022-07-23T12:34:27;5.07;;;2.30;;
66619;SDS011;53484;51.356;6.732;2022-07-23T12:36:54;4.82;;;2.85;;
66619;SDS011;53484;51.356;6.732;2022-07-23T12:39:29;5.53;;;2.53;;
66619;SDS011;53484;51.356;6.732;2022-07-23T12:41:55;3.92;;;2.50;;
66619;SDS011;53484;51.356;6.732;2022-07-23T12:44:21;5.05;;;2.20;;
66619;SDS011;53484;51.356;6.732;2022-07-23T12:46:50;6.78;;;2.28;;
66619;SDS011;53484;51.356;6.732;2022-07-23T12:49:24;3.72;;;1.80;;
66619;SDS011;53484;51.356;6.732;2022-07-23T12:51:51;8.33;;;2.57;;
66619;SDS011;53484;51.356;6.732;2022-07-23T12:54:17;6.38;;;2.47;;
66619;SDS011;53484;51.356;6.732;2022-07-23T12:56:44;5.32;;;2.10;;
66619;SDS011;53484;51.356;6.732;2022-07-23T12:59:11;5.35;;;2.25;;
66619;SDS011;53484;51.356;6.732;2022-07-23T13:01:40;3.95;;;2.25;;
66619;SDS011;53484;51.356;6.732;2022-07-23T13:04:09;6.60;;;1.57;;
66619;SDS011;53484;51.356;6.732;2022-07-23T13:06:36;7.05;;;2.40;;
66619;SDS011;53484;51.356;6.732;2022-07-23T13:09:04;8.07;;;3.03;;
66619;SDS011;53484;51.356;6.732;2022-07-23T13:11:31;12.00;;;4.75;;
66619;SDS011;53484;51.356;6.732;2022-07-23T13:13:58;7.32;;;3.05;;
66619;SDS011;53484;51.356;6.732;2022-07-23T13:16:25;6.80;;;2.57;;
66619;SDS011;53484;51.356;6.732;2022-07-23T13:18:51;5.75;;;2.58;;
66619;SDS011;53484;51.356;6.732;2022-07-23T13:21:19;7.00;;;2.90;;
66619;SDS011;53484;51.356;6.732;2022-07-23T13:23:45;7.22;;;2.70;;
66619;SDS011;53484;51.356;6.732;2022-07-23T13:26:12;5.57;;;2.38;;
66619;SDS011;53484;51.356;6.732;2022-07-23T13:28:38;4.53;;;2.70;;
66619;SDS011;53484;51.356;6.732;2022-07-23T13:31:05;7.18;;;2.95;;
66619;SDS011;53484;51.356;6.732;2022-07-23T13:33:31;5.15;;;2.20;;
66619;SDS011;53484;51.356;6.732;2022-07-23T13:35:57;5.25;;;2.28;;
66619;SDS011;53484;51.356;6.732;2022-07-23T13:38:25;6.82;;;2.40;;
66619;SDS011;53484;51.356;6.732;2022-07-23T13:40:52;5.90;;;2.20;;
66619;SDS011;53484;51.356;6.732;2022-07-23T13:43:19;5.75;;;2.30;;
66619;SDS011;53484;51.356;6.732;2022-07-23T13:45:46;6.20;;;2.70;;
66619;SDS011;53484;51.356;6.732;2022-07-23T13:48:12;6.95;;;2.50;;
66619;SDS011;53484;51.356;6.732;2022-07-23T13:50:40;5.60;;;2.70;;
66619;SDS011;53484;51.356;6.732;2022-07-23T13:53:08;5.37;;;3.20;;
66619;SDS011;53484;51.356;6.732;2022-07-23T13:55:37;6.03;;;3.25;;
66619;SDS011;53484;51.356;6.732;2022-07-23T13:58:04;6.55;;;3.03;;
66619;SDS011;53484;51.356;6.732;2022-07-23T14:00:31;5.68;;;2.28;;
66619;SDS011;53484;51.356;6.732;2022-07-23T14:02:57;4.18;;;2.20;;
66619;SDS011;53484;51.356;6.732;2022-07-23T14:05:24;5.67;;;1.90;;
66619;SDS011;53484;51.356;6.732;2022-07-23T14:07:50;5.45;;;2.28;;
66619;SDS011;53484;51.356;6.732;2022-07-23T14:10:17;6.00;;;2.47;;
66619;SDS011;53484;51.356;6.732;2022-07-23T14:12:45;5.22;;;2.50;;
66619;SDS011;53484;51.356;6.732;2022-07-23T14:15:11;5.40;;;2.33;;
66619;SDS011;53484;51.356;6.732;2022-07-23T14:17:38;5.33;;;2.33;;
66619;SDS011;53484;51.356;6.732;2022-07-23T14:20:05;5.63;;;2.50;;
66619;SDS011;53484;51.356;6.732;2022-07-23T14:22:32;7.57;;;3.72;;
66619;SDS011;53484;51.356;6.732;2022-07-23T14:24:59;6.88;;;3.50;;
66619;SDS011;53484;51.356;6.732;2022-07-23T14:27:25;7.38;;;4.28;;
66619;SDS011;53484;51.356;6.732;2022-07-23T14:29:53;4.90;;;2.43;;
66619;SDS011;53484;51.356;6.732;2022-07-23T14:32:20;8.38;;;3.60;;
66619;SDS011;53484;51.356;6.732;2022-07-23T14:34:46;7.75;;;3.60;;
66619;SDS011;53484;51.356;6.732;2022-07-23T14:37:13;6.63;;;3.38;;
66619;SDS011;53484;51.356;6.732;2022-07-23T14:39:39;5.25;;;2.70;;
66619;SDS011;53484;51.356;6.732;2022-07-23T14:42:06;5.20;;;2.73;;
66619;SDS011;53484;51.356;6.732;2022-07-23T14:44:32;5.22;;;2.40;;
66619;SDS011;53484;51.356;6.732;2022-07-23T14:47:00;5.57;;;2.70;;
66619;SDS011;53484;51.356;6.732;2022-07-23T14:49:28;6.50;;;2.30;;
66619;SDS011;53484;51.356;6.732;2022-07-23T14:51:54;5.68;;;2.58;;
66619;SDS011;53484;51.356;6.732;2022-07-23T14:54:20;4.60;;;2.13;;
66619;SDS011;53484;51.356;6.732;2022-07-23T14:56:46;4.82;;;2.65;;
66619;SDS011;53484;51.356;6.732;2022-07-23T14:59:13;6.45;;;2.33;;